Terminal Aerodrome Forecast
Issued by NWS

Home | Current Version | Previous Version | Text Only | Print | Product List | Glossary On
Versions: 1 2 3 4 5 6 7 8 9 10 11 12 13 14 15 16 17 18 19 20
000
FTUS43 KDLH 251910 AAA
TAFHYR
TAF AMD
KHYR 251910Z 2519/2618 31005G14KT P6SM VCSH BKN025 OVC060
     FM252000 31009G17KT P6SM -SHRA BKN030
     FM252200 31009G17KT P6SM -SHRA BKN040
     FM260100 32005KT P6SM SCT070=

USA.gov is the U.S. government's official web portal to all federal, state and local government web resources and services.